sensor_id;sensor_type;location;lat;lon;timestamp;pressure;altitude;pressure_sealevel;temperature
35582;BMP180;21687;48.900;9.188;2023-02-28T00:00:30;99128.00;;;-3.10
35582;BMP180;21687;48.900;9.188;2023-02-28T00:02:56;99132.00;;;-3.00
35582;BMP180;21687;48.900;9.188;2023-02-28T00:05:24;99137.00;;;-3.10
35582;BMP180;21687;48.900;9.188;2023-02-28T00:07:51;99125.00;;;-3.10
35582;BMP180;21687;48.900;9.188;2023-02-28T00:10:23;99128.00;;;-3.10
35582;BMP180;21687;48.900;9.188;2023-02-28T00:12:51;99121.00;;;-3.20
35582;BMP180;21687;48.900;9.188;2023-02-28T00:15:18;99131.00;;;-3.10
35582;BMP180;21687;48.900;9.188;2023-02-28T00:17:44;99132.00;;;-3.10
35582;BMP180;21687;48.900;9.188;2023-02-28T00:20:11;99128.00;;;-3.10
35582;BMP180;21687;48.900;9.188;2023-02-28T00:22:39;99121.00;;;-3.10
35582;BMP180;21687;48.900;9.188;2023-02-28T00:25:07;99127.00;;;-3.10
35582;BMP180;21687;48.900;9.188;2023-02-28T00:27:34;99122.00;;;-3.20
35582;BMP180;21687;48.900;9.188;2023-02-28T00:30:01;99128.00;;;-3.20
35582;BMP180;21687;48.900;9.188;2023-02-28T00:32:27;99131.00;;;-3.10
35582;BMP180;21687;48.900;9.188;2023-02-28T00:34:53;99122.00;;;-3.10
35582;BMP180;21687;48.900;9.188;2023-02-28T00:37:20;99116.00;;;-3.20
35582;BMP180;21687;48.900;9.188;2023-02-28T00:39:46;99127.00;;;-3.10
35582;BMP180;21687;48.900;9.188;2023-02-28T00:42:12;99113.00;;;-3.20
35582;BMP180;21687;48.900;9.188;2023-02-28T00:44:38;99130.00;;;-3.20
35582;BMP180;21687;48.900;9.188;2023-02-28T00:47:05;99129.00;;;-3.20
35582;BMP180;21687;48.900;9.188;2023-02-28T00:49:31;99120.00;;;-3.20
35582;BMP180;21687;48.900;9.188;2023-02-28T00:51:58;99119.00;;;-3.30
35582;BMP180;21687;48.900;9.188;2023-02-28T00:54:24;99123.00;;;-3.30
35582;BMP180;21687;48.900;9.188;2023-02-28T00:56:51;99128.00;;;-3.30
35582;BMP180;21687;48.900;9.188;2023-02-28T00:59:18;99109.00;;;-3.30
35582;BMP180;21687;48.900;9.188;2023-02-28T01:01:45;99127.00;;;-3.20
35582;BMP180;21687;48.900;9.188;2023-02-28T01:04:12;99110.00;;;-3.20
35582;BMP180;21687;48.900;9.188;2023-02-28T01:06:39;99127.00;;;-3.20
35582;BMP180;21687;48.900;9.188;2023-02-28T01:09:06;99118.00;;;-3.20
35582;BMP180;21687;48.900;9.188;2023-02-28T01:11:32;99115.00;;;-3.20
35582;BMP180;21687;48.900;9.188;2023-02-28T01:13:59;99117.00;;;-3.10
35582;BMP180;21687;48.900;9.188;2023-02-28T01:16:26;99122.00;;;-3.20
35582;BMP180;21687;48.900;9.188;2023-02-28T01:18:52;99118.00;;;-3.20
35582;BMP180;21687;48.900;9.188;2023-02-28T01:21:20;99121.00;;;-3.20
35582;BMP180;21687;48.900;9.188;2023-02-28T01:23:47;99113.00;;;-3.20
35582;BMP180;21687;48.900;9.188;2023-02-28T01:26:16;99113.00;;;-3.20
35582;BMP180;21687;48.900;9.188;2023-02-28T01:28:43;99112.00;;;-3.30
35582;BMP180;21687;48.900;9.188;2023-02-28T01:31:10;99116.00;;;-3.20
35582;BMP180;21687;48.900;9.188;2023-02-28T01:33:37;99118.00;;;-3.30
35582;BMP180;21687;48.900;9.188;2023-02-28T01:36:12;99106.00;;;-3.40
35582;BMP180;21687;48.900;9.188;2023-02-28T01:38:39;99110.00;;;-3.40
35582;BMP180;21687;48.900;9.188;2023-02-28T01:41:06;99103.00;;;-3.50
35582;BMP180;21687;48.900;9.188;2023-02-28T01:43:57;99110.00;;;-3.40
35582;BMP180;21687;48.900;9.188;2023-02-28T01:46:27;99105.00;;;-3.40
35582;BMP180;21687;48.900;9.188;2023-02-28T01:49:02;99106.00;;;-3.40
35582;BMP180;21687;48.900;9.188;2023-02-28T01:51:48;99085.00;;;-3.50
35582;BMP180;21687;48.900;9.188;2023-02-28T01:54:25;99115.00;;;-3.60
35582;BMP180;21687;48.900;9.188;2023-02-28T01:57:04;99112.00;;;-3.60
35582;BMP180;21687;48.900;9.188;2023-02-28T01:59:42;99107.00;;;-3.60
35582;BMP180;21687;48.900;9.188;2023-02-28T02:02:13;99104.00;;;-3.70
35582;BMP180;21687;48.900;9.188;2023-02-28T02:07:17;99098.00;;;-3.80
35582;BMP180;21687;48.900;9.188;2023-02-28T02:09:43;99089.00;;;-3.90
35582;BMP180;21687;48.900;9.188;2023-02-28T02:12:40;99093.00;;;-3.90
35582;BMP180;21687;48.900;9.188;2023-02-28T02:15:34;99097.00;;;-3.90
35582;BMP180;21687;48.900;9.188;2023-02-28T02:18:15;99090.00;;;-3.90
35582;BMP180;21687;48.900;9.188;2023-02-28T02:20:53;99091.00;;;-3.90
35582;BMP180;21687;48.900;9.188;2023-02-28T02:34:52;99078.00;;;-3.90
35582;BMP180;21687;48.900;9.188;2023-02-28T02:37:37;99077.00;;;-3.90
35582;BMP180;21687;48.900;9.188;2023-02-28T02:40:13;99077.00;;;-3.90
35582;BMP180;21687;48.900;9.188;2023-02-28T02:42:49;99076.00;;;-3.80
35582;BMP180;21687;48.900;9.188;2023-02-28T02:48:04;99055.00;;;-3.80
35582;BMP180;21687;48.900;9.188;2023-02-28T02:50:44;99077.00;;;-3.80
35582;BMP180;21687;48.900;9.188;2023-02-28T02:53:13;99080.00;;;-3.80
35582;BMP180;21687;48.900;9.188;2023-02-28T02:55:42;99077.00;;;-3.80
35582;BMP180;21687;48.900;9.188;2023-02-28T02:58:16;99081.00;;;-3.80
35582;BMP180;21687;48.900;9.188;2023-02-28T03:00:55;99077.00;;;-3.80
35582;BMP180;21687;48.900;9.188;2023-02-28T03:03:23;99080.00;;;-3.70
35582;BMP180;21687;48.900;9.188;2023-02-28T03:05:56;99078.00;;;-3.70
35582;BMP180;21687;48.900;9.188;2023-02-28T03:08:23;99078.00;;;-3.70
35582;BMP180;21687;48.900;9.188;2023-02-28T03:10:51;99062.00;;;-3.70
35582;BMP180;21687;48.900;9.188;2023-02-28T03:24:36;99085.00;;;-3.50
35582;BMP180;21687;48.900;9.188;2023-02-28T03:27:11;99082.00;;;-3.50
35582;BMP180;21687;48.900;9.188;2023-02-28T03:29:51;99084.00;;;-3.50
35582;BMP180;21687;48.900;9.188;2023-02-28T03:35:30;99072.00;;;-3.40
35582;BMP180;21687;48.900;9.188;2023-02-28T03:38:49;99083.00;;;-3.40
35582;BMP180;21687;48.900;9.188;2023-02-28T03:40:58;99068.00;;;-3.30
35582;BMP180;21687;48.900;9.188;2023-02-28T03:43:29;99077.00;;;-3.30
35582;BMP180;21687;48.900;9.188;2023-02-28T03:45:58;99078.00;;;-3.20
35582;BMP180;21687;48.900;9.188;2023-02-28T03:48:38;99084.00;;;-3.10
35582;BMP180;21687;48.900;9.188;2023-02-28T03:51:07;99081.00;;;-3.00
35582;BMP180;21687;48.900;9.188;2023-02-28T03:53:41;99075.00;;;-3.00
35582;BMP180;21687;48.900;9.188;2023-02-28T03:59:04;99067.00;;;-2.90
35582;BMP180;21687;48.900;9.188;2023-02-28T04:01:37;99074.00;;;-2.80
35582;BMP180;21687;48.900;9.188;2023-02-28T04:04:05;99078.00;;;-2.80
35582;BMP180;21687;48.900;9.188;2023-02-28T04:06:32;99083.00;;;-2.70
35582;BMP180;21687;48.900;9.188;2023-02-28T04:08:59;99077.00;;;-2.80
35582;BMP180;21687;48.900;9.188;2023-02-28T04:11:37;99075.00;;;-2.70
35582;BMP180;21687;48.900;9.188;2023-02-28T04:14:05;99086.00;;;-2.70
35582;BMP180;21687;48.900;9.188;2023-02-28T04:16:34;99090.00;;;-2.70
35582;BMP180;21687;48.900;9.188;2023-02-28T04:19:02;99090.00;;;-2.70
35582;BMP180;21687;48.900;9.188;2023-02-28T04:21:37;99095.00;;;-2.60
35582;BMP180;21687;48.900;9.188;2023-02-28T04:24:06;99096.00;;;-2.60
35582;BMP180;21687;48.900;9.188;2023-02-28T04:26:34;99099.00;;;-2.60
35582;BMP180;21687;48.900;9.188;2023-02-28T04:29:01;99104.00;;;-2.60
35582;BMP180;21687;48.900;9.188;2023-02-28T04:31:28;99098.00;;;-2.60
35582;BMP180;21687;48.900;9.188;2023-02-28T04:33:54;99089.00;;;-2.60
35582;BMP180;21687;48.900;9.188;2023-02-28T04:36:20;99093.00;;;-2.60
35582;BMP180;21687;48.900;9.188;2023-02-28T04:38:48;99095.00;;;-2.60
35582;BMP180;21687;48.900;9.188;2023-02-28T04:41:15;99089.00;;;-2.60
35582;BMP180;21687;48.900;9.188;2023-02-28T04:43:42;99082.00;;;-2.60
35582;BMP180;21687;48.900;9.188;2023-02-28T04:46:08;99087.00;;;-2.60
35582;BMP180;21687;48.900;9.188;2023-02-28T04:48:37;99092.00;;;-2.60
35582;BMP180;21687;48.900;9.188;2023-02-28T04:53:31;99080.00;;;-2.60
35582;BMP180;21687;48.900;9.188;2023-02-28T04:55:58;99084.00;;;-2.60
35582;BMP180;21687;48.900;9.188;2023-02-28T04:58:25;99083.00;;;-2.60
35582;BMP180;21687;48.900;9.188;2023-02-28T05:00:52;99099.00;;;-2.60
35582;BMP180;21687;48.900;9.188;2023-02-28T05:03:19;99093.00;;;-2.60
35582;BMP180;21687;48.900;9.188;2023-02-28T05:05:46;99087.00;;;-2.60
35582;BMP180;21687;48.900;9.188;2023-02-28T05:08:13;99091.00;;;-2.50
35582;BMP180;21687;48.900;9.188;2023-02-28T05:10:39;99094.00;;;-2.70
35582;BMP180;21687;48.900;9.188;2023-02-28T05:13:06;99090.00;;;-2.50
35582;BMP180;21687;48.900;9.188;2023-02-28T05:15:32;99093.00;;;-2.50
35582;BMP180;21687;48.900;9.188;2023-02-28T05:17:58;99091.00;;;-2.50
35582;BMP180;21687;48.900;9.188;2023-02-28T05:20:24;99088.00;;;-2.50
35582;BMP180;21687;48.900;9.188;2023-02-28T05:22:50;99088.00;;;-2.50
35582;BMP180;21687;48.900;9.188;2023-02-28T05:25:20;99089.00;;;-2.60
35582;BMP180;21687;48.900;9.188;2023-02-28T05:27:47;99100.00;;;-2.50
35582;BMP180;21687;48.900;9.188;2023-02-28T05:30:14;99092.00;;;-2.50
35582;BMP180;21687;48.900;9.188;2023-02-28T05:32:41;99097.00;;;-2.50
35582;BMP180;21687;48.900;9.188;2023-02-28T05:35:11;99102.00;;;-2.40
35582;BMP180;21687;48.900;9.188;2023-02-28T05:37:38;99096.00;;;-2.40
35582;BMP180;21687;48.900;9.188;2023-02-28T05:40:05;99096.00;;;-2.50
35582;BMP180;21687;48.900;9.188;2023-02-28T05:42:33;99105.00;;;-2.50
35582;BMP180;21687;48.900;9.188;2023-02-28T05:44:59;99100.00;;;-2.50
35582;BMP180;21687;48.900;9.188;2023-02-28T05:47:25;99099.00;;;-2.40
35582;BMP180;21687;48.900;9.188;2023-02-28T05:49:52;99104.00;;;-2.40
35582;BMP180;21687;48.900;9.188;2023-02-28T05:52:18;99102.00;;;-2.40
35582;BMP180;21687;48.900;9.188;2023-02-28T05:54:45;99104.00;;;-2.40
35582;BMP180;21687;48.900;9.188;2023-02-28T05:57:14;99109.00;;;-2.50
35582;BMP180;21687;48.900;9.188;2023-02-28T05:59:41;99095.00;;;-2.40
35582;BMP180;21687;48.900;9.188;2023-02-28T06:02:13;99105.00;;;-2.40
35582;BMP180;21687;48.900;9.188;2023-02-28T06:04:39;99109.00;;;-2.40
35582;BMP180;21687;48.900;9.188;2023-02-28T06:07:07;99107.00;;;-2.40
35582;BMP180;21687;48.900;9.188;2023-02-28T06:09:33;99105.00;;;-2.40
35582;BMP180;21687;48.900;9.188;2023-02-28T06:12:01;99113.00;;;-2.40
35582;BMP180;21687;48.900;9.188;2023-02-28T06:14:29;99112.00;;;-2.40
35582;BMP180;21687;48.900;9.188;2023-02-28T06:16:57;99111.00;;;-2.40
35582;BMP180;21687;48.900;9.188;2023-02-28T06:19:24;99114.00;;;-2.30
35582;BMP180;21687;48.900;9.188;2023-02-28T06:21:54;99118.00;;;-2.30
35582;BMP180;21687;48.900;9.188;2023-02-28T06:24:21;99120.00;;;-2.30
35582;BMP180;21687;48.900;9.188;2023-02-28T06:26:48;99128.00;;;-2.30
35582;BMP180;21687;48.900;9.188;2023-02-28T06:29:14;99117.00;;;-2.30
35582;BMP180;21687;48.900;9.188;2023-02-28T06:31:47;99106.00;;;-2.30
35582;BMP180;21687;48.900;9.188;2023-02-28T06:34:14;99122.00;;;-2.30
35582;BMP180;21687;48.900;9.188;2023-02-28T06:36:41;99124.00;;;-2.30
35582;BMP180;21687;48.900;9.188;2023-02-28T06:39:08;99128.00;;;-2.30
35582;BMP180;21687;48.900;9.188;2023-02-28T06:41:35;99137.00;;;-2.20
35582;BMP180;21687;48.900;9.188;2023-02-28T06:44:12;99125.00;;;-2.30
35582;BMP180;21687;48.900;9.188;2023-02-28T06:46:40;99131.00;;;-2.20
35582;BMP180;21687;48.900;9.188;2023-02-28T06:49:07;99127.00;;;-2.10
35582;BMP180;21687;48.900;9.188;2023-02-28T06:51:38;99130.00;;;-2.10
35582;BMP180;21687;48.900;9.188;2023-02-28T06:54:05;99137.00;;;-2.10
35582;BMP180;21687;48.900;9.188;2023-02-28T06:56:35;99155.00;;;-2.00
35582;BMP180;21687;48.900;9.188;2023-02-28T06:59:02;99143.00;;;-2.00
35582;BMP180;21687;48.900;9.188;2023-02-28T07:01:29;99147.00;;;-2.00
35582;BMP180;21687;48.900;9.188;2023-02-28T07:03:58;99150.00;;;-2.00
35582;BMP180;21687;48.900;9.188;2023-02-28T07:06:24;99143.00;;;-2.00
35582;BMP180;21687;48.900;9.188;2023-02-28T07:08:52;99150.00;;;-2.00
35582;BMP180;21687;48.900;9.188;2023-02-28T07:11:19;99138.00;;;-2.00
35582;BMP180;21687;48.900;9.188;2023-02-28T07:13:46;99158.00;;;-2.00
35582;BMP180;21687;48.900;9.188;2023-02-28T07:16:13;99153.00;;;-2.00
35582;BMP180;21687;48.900;9.188;2023-02-28T07:18:39;99145.00;;;-2.00
35582;BMP180;21687;48.900;9.188;2023-02-28T07:21:08;99160.00;;;-2.00
35582;BMP180;21687;48.900;9.188;2023-02-28T07:23:34;99158.00;;;-2.00
35582;BMP180;21687;48.900;9.188;2023-02-28T07:26:01;99158.00;;;-2.00
35582;BMP180;21687;48.900;9.188;2023-02-28T07:28:27;99161.00;;;-1.90
35582;BMP180;21687;48.900;9.188;2023-02-28T07:30:53;99158.00;;;-1.90
35582;BMP180;21687;48.900;9.188;2023-02-28T07:33:20;99165.00;;;-2.00
35582;BMP180;21687;48.900;9.188;2023-02-28T07:35:46;99160.00;;;-2.00
35582;BMP180;21687;48.900;9.188;2023-02-28T07:38:12;99162.00;;;-2.00
35582;BMP180;21687;48.900;9.188;2023-02-28T07:40:39;99161.00;;;-1.80
35582;BMP180;21687;48.900;9.188;2023-02-28T07:43:06;99173.00;;;-1.80
35582;BMP180;21687;48.900;9.188;2023-02-28T07:45:32;99158.00;;;-1.80
35582;BMP180;21687;48.900;9.188;2023-02-28T07:48:00;99162.00;;;-1.90
35582;BMP180;21687;48.900;9.188;2023-02-28T07:50:27;99169.00;;;-1.80
35582;BMP180;21687;48.900;9.188;2023-02-28T07:52:58;99169.00;;;-1.80
35582;BMP180;21687;48.900;9.188;2023-02-28T07:55:24;99163.00;;;-1.80
35582;BMP180;21687;48.900;9.188;2023-02-28T07:57:50;99169.00;;;-1.80
35582;BMP180;21687;48.900;9.188;2023-02-28T08:00:16;99175.00;;;-1.80
35582;BMP180;21687;48.900;9.188;2023-02-28T08:02:43;99168.00;;;-1.90
35582;BMP180;21687;48.900;9.188;2023-02-28T08:05:09;99167.00;;;-1.80
35582;BMP180;21687;48.900;9.188;2023-02-28T08:07:36;99162.00;;;-1.70
35582;BMP180;21687;48.900;9.188;2023-02-28T08:10:02;99169.00;;;-1.70
35582;BMP180;21687;48.900;9.188;2023-02-28T08:12:28;99170.00;;;-1.60
35582;BMP180;21687;48.900;9.188;2023-02-28T08:14:54;99168.00;;;-1.70
35582;BMP180;21687;48.900;9.188;2023-02-28T08:17:21;99168.00;;;-1.70
35582;BMP180;21687;48.900;9.188;2023-02-28T08:19:47;99169.00;;;-1.60
35582;BMP180;21687;48.900;9.188;2023-02-28T08:22:13;99166.00;;;-1.50
35582;BMP180;21687;48.900;9.188;2023-02-28T08:24:41;99174.00;;;-1.50
35582;BMP180;21687;48.900;9.188;2023-02-28T08:27:09;99172.00;;;-1.50
35582;BMP180;21687;48.900;9.188;2023-02-28T08:29:37;99187.00;;;-1.40
35582;BMP180;21687;48.900;9.188;2023-02-28T08:32:05;99191.00;;;-1.40
35582;BMP180;21687;48.900;9.188;2023-02-28T08:34:31;99182.00;;;-1.40
35582;BMP180;21687;48.900;9.188;2023-02-28T08:36:58;99180.00;;;-1.30
35582;BMP180;21687;48.900;9.188;2023-02-28T08:39:24;99175.00;;;-1.00
35582;BMP180;21687;48.900;9.188;2023-02-28T08:41:50;99177.00;;;-1.00
35582;BMP180;21687;48.900;9.188;2023-02-28T08:44:16;99190.00;;;-1.00
35582;BMP180;21687;48.900;9.188;2023-02-28T08:46:42;99179.00;;;-0.90
35582;BMP180;21687;48.900;9.188;2023-02-28T08:49:11;99177.00;;;-0.90
35582;BMP180;21687;48.900;9.188;2023-02-28T08:51:39;99183.00;;;-1.00
35582;BMP180;21687;48.900;9.188;2023-02-28T08:54:05;99178.00;;;-1.00
35582;BMP180;21687;48.900;9.188;2023-02-28T08:56:31;99179.00;;;-0.80
35582;BMP180;21687;48.900;9.188;2023-02-28T08:58:57;99185.00;;;-0.70
35582;BMP180;21687;48.900;9.188;2023-02-28T09:01:26;99195.00;;;-0.70
35582;BMP180;21687;48.900;9.188;2023-02-28T09:03:53;99190.00;;;-0.80
35582;BMP180;21687;48.900;9.188;2023-02-28T09:06:21;99195.00;;;-0.90
35582;BMP180;21687;48.900;9.188;2023-02-28T09:08:49;99182.00;;;-0.70
35582;BMP180;21687;48.900;9.188;2023-02-28T09:11:16;99194.00;;;-0.60
35582;BMP180;21687;48.900;9.188;2023-02-28T09:13:42;99178.00;;;-0.40
35582;BMP180;21687;48.900;9.188;2023-02-28T09:16:14;99188.00;;;-0.20
35582;BMP180;21687;48.900;9.188;2023-02-28T09:18:42;99190.00;;;-0.20
35582;BMP180;21687;48.900;9.188;2023-02-28T09:21:10;99180.00;;;-0.30
35582;BMP180;21687;48.900;9.188;2023-02-28T09:23:40;99187.00;;;-0.10
35582;BMP180;21687;48.900;9.188;2023-02-28T09:26:07;99191.00;;;-0.20
35582;BMP180;21687;48.900;9.188;2023-02-28T09:28:33;99186.00;;;-0.10
35582;BMP180;21687;48.900;9.188;2023-02-28T09:30:59;99182.00;;;0.00
35582;BMP180;21687;48.900;9.188;2023-02-28T09:33:26;99191.00;;;0.00
35582;BMP180;21687;48.900;9.188;2023-02-28T09:35:59;99190.00;;;0.20
35582;BMP180;21687;48.900;9.188;2023-02-28T09:38:26;99191.00;;;0.20
35582;BMP180;21687;48.900;9.188;2023-02-28T09:40:57;99195.00;;;0.20
35582;BMP180;21687;48.900;9.188;2023-02-28T09:43:32;99201.00;;;0.20
35582;BMP180;21687;48.900;9.188;2023-02-28T09:48:37;99207.00;;;0.60
35582;BMP180;21687;48.900;9.188;2023-02-28T09:51:23;99213.00;;;0.50
35582;BMP180;21687;48.900;9.188;2023-02-28T09:53:53;99204.00;;;0.30
35582;BMP180;21687;48.900;9.188;2023-02-28T09:56:24;99200.00;;;0.20
35582;BMP180;21687;48.900;9.188;2023-02-28T09:58:59;99211.00;;;0.20
35582;BMP180;21687;48.900;9.188;2023-02-28T10:01:39;99201.00;;;0.50
35582;BMP180;21687;48.900;9.188;2023-02-28T10:07:37;99210.00;;;0.60
35582;BMP180;21687;48.900;9.188;2023-02-28T10:10:45;99204.00;;;0.60
35582;BMP180;21687;48.900;9.188;2023-02-28T10:13:53;99217.00;;;0.60
35582;BMP180;21687;48.900;9.188;2023-02-28T10:16:47;99208.00;;;0.70
35582;BMP180;21687;48.900;9.188;2023-02-28T10:20:09;99212.00;;;0.90
35582;BMP180;21687;48.900;9.188;2023-02-28T10:23:14;99210.00;;;1.00
35582;BMP180;21687;48.900;9.188;2023-02-28T10:26:12;99208.00;;;1.10
35582;BMP180;21687;48.900;9.188;2023-02-28T10:28:39;99213.00;;;1.30
35582;BMP180;21687;48.900;9.188;2023-02-28T10:31:18;99211.00;;;1.30
35582;BMP180;21687;48.900;9.188;2023-02-28T10:33:44;99224.00;;;1.40
35582;BMP180;21687;48.900;9.188;2023-02-28T10:36:15;99226.00;;;1.50
35582;BMP180;21687;48.900;9.188;2023-02-28T10:38:43;99226.00;;;1.50
35582;BMP180;21687;48.900;9.188;2023-02-28T10:41:15;99229.00;;;1.50
35582;BMP180;21687;48.900;9.188;2023-02-28T10:43:43;99220.00;;;1.50
35582;BMP180;21687;48.900;9.188;2023-02-28T10:46:12;99212.00;;;1.70
35582;BMP180;21687;48.900;9.188;2023-02-28T10:49:00;99219.00;;;1.80
35582;BMP180;21687;48.900;9.188;2023-02-28T10:51:36;99210.00;;;1.60
35582;BMP180;21687;48.900;9.188;2023-02-28T10:54:03;99215.00;;;1.90
35582;BMP180;21687;48.900;9.188;2023-02-28T10:56:30;99215.00;;;1.90
35582;BMP180;21687;48.900;9.188;2023-02-28T11:04:00;99203.00;;;1.90
35582;BMP180;21687;48.900;9.188;2023-02-28T11:06:30;99209.00;;;2.00
35582;BMP180;21687;48.900;9.188;2023-02-28T11:08:59;99212.00;;;1.60
35582;BMP180;21687;48.900;9.188;2023-02-28T11:11:43;99206.00;;;1.80
35582;BMP180;21687;48.900;9.188;2023-02-28T11:14:29;99207.00;;;1.90
35582;BMP180;21687;48.900;9.188;2023-02-28T11:17:11;99197.00;;;1.80
35582;BMP180;21687;48.900;9.188;2023-02-28T11:19:44;99193.00;;;1.80
35582;BMP180;21687;48.900;9.188;2023-02-28T11:22:11;99194.00;;;1.60
35582;BMP180;21687;48.900;9.188;2023-02-28T11:24:44;99191.00;;;1.50
35582;BMP180;21687;48.900;9.188;2023-02-28T11:29:57;99182.00;;;1.50
35582;BMP180;21687;48.900;9.188;2023-02-28T11:32:26;99181.00;;;1.70
35582;BMP180;21687;48.900;9.188;2023-02-28T11:35:17;99184.00;;;1.70
35582;BMP180;21687;48.900;9.188;2023-02-28T11:37:45;99179.00;;;1.80
35582;BMP180;21687;48.900;9.188;2023-02-28T11:40:43;99181.00;;;1.90
35582;BMP180;21687;48.900;9.188;2023-02-28T11:43:09;99180.00;;;2.00
35582;BMP180;21687;48.900;9.188;2023-02-28T11:45:58;99180.00;;;2.30
35582;BMP180;21687;48.900;9.188;2023-02-28T11:52:06;99179.00;;;2.50
35582;BMP180;21687;48.900;9.188;2023-02-28T11:57:48;99177.00;;;2.40
35582;BMP180;21687;48.900;9.188;2023-02-28T12:06:44;99164.00;;;3.00
35582;BMP180;21687;48.900;9.188;2023-02-28T12:12:15;99173.00;;;3.10
35582;BMP180;21687;48.900;9.188;2023-02-28T12:14:56;99166.00;;;3.10
35582;BMP180;21687;48.900;9.188;2023-02-28T12:20:25;99163.00;;;3.10
35582;BMP180;21687;48.900;9.188;2023-02-28T12:25:59;99168.00;;;3.50
35582;BMP180;21687;48.900;9.188;2023-02-28T12:28:32;99154.00;;;3.30
35582;BMP180;21687;48.900;9.188;2023-02-28T12:33:52;99158.00;;;3.50
35582;BMP180;21687;48.900;9.188;2023-02-28T12:36:26;99159.00;;;3.30
35582;BMP180;21687;48.900;9.188;2023-02-28T12:39:02;99161.00;;;3.30
35582;BMP180;21687;48.900;9.188;2023-02-28T12:41:36;99147.00;;;3.30
35582;BMP180;21687;48.900;9.188;2023-02-28T12:44:12;99145.00;;;3.40
35582;BMP180;21687;48.900;9.188;2023-02-28T12:46:51;99149.00;;;3.60
35582;BMP180;21687;48.900;9.188;2023-02-28T12:49:33;99147.00;;;3.50
35582;BMP180;21687;48.900;9.188;2023-02-28T12:52:19;99144.00;;;3.50
35582;BMP180;21687;48.900;9.188;2023-02-28T12:55:00;99137.00;;;3.50
35582;BMP180;21687;48.900;9.188;2023-02-28T13:00:16;99140.00;;;3.50
35582;BMP180;21687;48.900;9.188;2023-02-28T13:06:00;99133.00;;;3.40
35582;BMP180;21687;48.900;9.188;2023-02-28T13:11:48;99136.00;;;3.50
35582;BMP180;21687;48.900;9.188;2023-02-28T13:14:22;99129.00;;;3.60
35582;BMP180;21687;48.900;9.188;2023-02-28T13:19:23;99130.00;;;3.60
35582;BMP180;21687;48.900;9.188;2023-02-28T13:21:51;99129.00;;;3.70
35582;BMP180;21687;48.900;9.188;2023-02-28T13:29:41;99130.00;;;3.60
35582;BMP180;21687;48.900;9.188;2023-02-28T13:34:36;99131.00;;;3.60
35582;BMP180;21687;48.900;9.188;2023-02-28T13:42:34;99125.00;;;3.80
35582;BMP180;21687;48.900;9.188;2023-02-28T13:53:13;99135.00;;;3.80
35582;BMP180;21687;48.900;9.188;2023-02-28T13:56:03;99128.00;;;3.80
35582;BMP180;21687;48.900;9.188;2023-02-28T14:04:14;99136.00;;;4.00
35582;BMP180;21687;48.900;9.188;2023-02-28T14:06:54;99124.00;;;4.10
35582;BMP180;21687;48.900;9.188;2023-02-28T14:11:59;99130.00;;;3.80
35582;BMP180;21687;48.900;9.188;2023-02-28T14:17:15;99132.00;;;4.00
35582;BMP180;21687;48.900;9.188;2023-02-28T14:19:45;99131.00;;;4.00
35582;BMP180;21687;48.900;9.188;2023-02-28T14:22:46;99131.00;;;4.10
35582;BMP180;21687;48.900;9.188;2023-02-28T14:25:47;99133.00;;;4.00
35582;BMP180;21687;48.900;9.188;2023-02-28T14:28:36;99143.00;;;3.90
35582;BMP180;21687;48.900;9.188;2023-02-28T14:31:29;99138.00;;;4.00
35582;BMP180;21687;48.900;9.188;2023-02-28T14:37:42;99137.00;;;3.90
35582;BMP180;21687;48.900;9.188;2023-02-28T14:40:35;99125.00;;;3.90
35582;BMP180;21687;48.900;9.188;2023-02-28T14:43:24;99135.00;;;4.00
35582;BMP180;21687;48.900;9.188;2023-02-28T14:46:12;99134.00;;;4.00
35582;BMP180;21687;48.900;9.188;2023-02-28T14:48:59;99129.00;;;4.00
35582;BMP180;21687;48.900;9.188;2023-02-28T14:51:47;99132.00;;;4.00
35582;BMP180;21687;48.900;9.188;2023-02-28T14:54:36;99136.00;;;3.90
35582;BMP180;21687;48.900;9.188;2023-02-28T14:57:24;99134.00;;;4.00
35582;BMP180;21687;48.900;9.188;2023-02-28T15:00:25;99133.00;;;4.00
35582;BMP180;21687;48.900;9.188;2023-02-28T15:03:27;99139.00;;;4.00
35582;BMP180;21687;48.900;9.188;2023-02-28T15:06:17;99147.00;;;3.90
35582;BMP180;21687;48.900;9.188;2023-02-28T15:11:55;99132.00;;;4.00
35582;BMP180;21687;48.900;9.188;2023-02-28T15:14:44;99152.00;;;3.90
35582;BMP180;21687;48.900;9.188;2023-02-28T15:17:31;99156.00;;;3.80
35582;BMP180;21687;48.900;9.188;2023-02-28T15:20:18;99154.00;;;3.90
35582;BMP180;21687;48.900;9.188;2023-02-28T15:23:05;99141.00;;;3.90
35582;BMP180;21687;48.900;9.188;2023-02-28T15:25:53;99150.00;;;3.90
35582;BMP180;21687;48.900;9.188;2023-02-28T15:28:40;99148.00;;;3.80
35582;BMP180;21687;48.900;9.188;2023-02-28T15:31:33;99142.00;;;3.80
35582;BMP180;21687;48.900;9.188;2023-02-28T15:40:17;99141.00;;;3.90
35582;BMP180;21687;48.900;9.188;2023-02-28T15:43:18;99149.00;;;3.80
35582;BMP180;21687;48.900;9.188;2023-02-28T15:46:11;99144.00;;;3.80
35582;BMP180;21687;48.900;9.188;2023-02-28T15:48:58;99145.00;;;3.70
35582;BMP180;21687;48.900;9.188;2023-02-28T15:51:45;99149.00;;;3.60
35582;BMP180;21687;48.900;9.188;2023-02-28T15:54:35;99149.00;;;3.50
35582;BMP180;21687;48.900;9.188;2023-02-28T15:57:25;99148.00;;;3.40
35582;BMP180;21687;48.900;9.188;2023-02-28T16:00:15;99155.00;;;3.40
35582;BMP180;21687;48.900;9.188;2023-02-28T16:03:21;99154.00;;;3.30
35582;BMP180;21687;48.900;9.188;2023-02-28T16:06:32;99152.00;;;3.30
35582;BMP180;21687;48.900;9.188;2023-02-28T16:09:17;99143.00;;;3.30
35582;BMP180;21687;48.900;9.188;2023-02-28T16:12:03;99146.00;;;3.20
35582;BMP180;21687;48.900;9.188;2023-02-28T16:14:53;99152.00;;;3.20
35582;BMP180;21687;48.900;9.188;2023-02-28T16:17:40;99154.00;;;3.10
35582;BMP180;21687;48.900;9.188;2023-02-28T16:20:30;99146.00;;;3.10
35582;BMP180;21687;48.900;9.188;2023-02-28T16:23:17;99159.00;;;3.10
35582;BMP180;21687;48.900;9.188;2023-02-28T16:26:04;99158.00;;;3.00
35582;BMP180;21687;48.900;9.188;2023-02-28T16:28:52;99162.00;;;2.90
35582;BMP180;21687;48.900;9.188;2023-02-28T16:31:39;99169.00;;;2.90
35582;BMP180;21687;48.900;9.188;2023-02-28T16:34:26;99163.00;;;2.80
35582;BMP180;21687;48.900;9.188;2023-02-28T16:37:18;99171.00;;;2.80
35582;BMP180;21687;48.900;9.188;2023-02-28T16:40:05;99180.00;;;2.70
35582;BMP180;21687;48.900;9.188;2023-02-28T16:42:53;99179.00;;;2.70
35582;BMP180;21687;48.900;9.188;2023-02-28T16:45:45;99177.00;;;2.60
35582;BMP180;21687;48.900;9.188;2023-02-28T16:48:32;99183.00;;;2.60
35582;BMP180;21687;48.900;9.188;2023-02-28T16:51:19;99184.00;;;2.60
35582;BMP180;21687;48.900;9.188;2023-02-28T16:54:05;99182.00;;;2.50
35582;BMP180;21687;48.900;9.188;2023-02-28T16:56:52;99184.00;;;2.40
35582;BMP180;21687;48.900;9.188;2023-02-28T16:59:39;99192.00;;;2.30
35582;BMP180;21687;48.900;9.188;2023-02-28T17:02:26;99194.00;;;2.20